sensor_id;sensor_type;location;lat;lon;timestamp;temperature;humidity
3690;DHT22;1861;50.240;8.596;2023-03-07T00:02:13;6.40;91.30
3690;DHT22;1861;50.240;8.596;2023-03-07T00:04:44;6.40;91.50
3690;DHT22;1861;50.240;8.596;2023-03-07T00:07:12;6.40;91.60
3690;DHT22;1861;50.240;8.596;2023-03-07T00:09:40;6.40;91.80
3690;DHT22;1861;50.240;8.596;2023-03-07T00:12:09;6.30;92.00
3690;DHT22;1861;50.240;8.596;2023-03-07T00:14:37;6.40;92.20
3690;DHT22;1861;50.240;8.596;2023-03-07T00:17:07;6.40;92.40
3690;DHT22;1861;50.240;8.596;2023-03-07T00:19:35;6.40;92.40
3690;DHT22;1861;50.240;8.596;2023-03-07T00:22:03;6.50;92.50
3690;DHT22;1861;50.240;8.596;2023-03-07T00:24:31;6.40;92.50
3690;DHT22;1861;50.240;8.596;2023-03-07T00:26:59;6.50;92.60
3690;DHT22;1861;50.240;8.596;2023-03-07T00:29:28;6.50;92.70
3690;DHT22;1861;50.240;8.596;2023-03-07T00:31:56;6.50;92.80
3690;DHT22;1861;50.240;8.596;2023-03-07T00:34:25;6.50;92.90
3690;DHT22;1861;50.240;8.596;2023-03-07T00:36:53;6.40;93.00
3690;DHT22;1861;50.240;8.596;2023-03-07T00:39:21;6.40;93.00
3690;DHT22;1861;50.240;8.596;2023-03-07T00:41:49;6.40;93.20
3690;DHT22;1861;50.240;8.596;2023-03-07T00:44:17;6.40;93.30
3690;DHT22;1861;50.240;8.596;2023-03-07T00:46:45;6.40;93.30
3690;DHT22;1861;50.240;8.596;2023-03-07T00:49:13;6.40;93.40
3690;DHT22;1861;50.240;8.596;2023-03-07T00:51:43;6.40;93.50
3690;DHT22;1861;50.240;8.596;2023-03-07T00:54:11;6.40;93.60
3690;DHT22;1861;50.240;8.596;2023-03-07T00:56:39;6.40;93.70
3690;DHT22;1861;50.240;8.596;2023-03-07T00:59:08;6.30;93.70
3690;DHT22;1861;50.240;8.596;2023-03-07T01:01:36;6.20;94.00
3690;DHT22;1861;50.240;8.596;2023-03-07T01:04:04;6.20;94.00
3690;DHT22;1861;50.240;8.596;2023-03-07T01:06:33;6.10;94.20
3690;DHT22;1861;50.240;8.596;2023-03-07T01:09:05;6.10;94.30
3690;DHT22;1861;50.240;8.596;2023-03-07T01:11:35;6.20;94.40
3690;DHT22;1861;50.240;8.596;2023-03-07T01:14:04;6.20;94.40
3690;DHT22;1861;50.240;8.596;2023-03-07T01:16:36;6.20;94.50
3690;DHT22;1861;50.240;8.596;2023-03-07T01:19:07;6.20;94.40
3690;DHT22;1861;50.240;8.596;2023-03-07T01:21:36;6.20;94.60
3690;DHT22;1861;50.240;8.596;2023-03-07T01:24:09;6.20;94.50
3690;DHT22;1861;50.240;8.596;2023-03-07T01:26:38;6.20;94.70
3690;DHT22;1861;50.240;8.596;2023-03-07T01:29:07;6.20;94.70
3690;DHT22;1861;50.240;8.596;2023-03-07T01:31:37;6.20;94.80
3690;DHT22;1861;50.240;8.596;2023-03-07T01:34:06;6.10;94.90
3690;DHT22;1861;50.240;8.596;2023-03-07T01:36:35;6.00;95.00
3690;DHT22;1861;50.240;8.596;2023-03-07T01:39:07;6.00;95.10
3690;DHT22;1861;50.240;8.596;2023-03-07T01:41:43;6.10;95.20
3690;DHT22;1861;50.240;8.596;2023-03-07T01:44:14;6.10;95.20
3690;DHT22;1861;50.240;8.596;2023-03-07T01:46:46;6.10;95.30
3690;DHT22;1861;50.240;8.596;2023-03-07T01:49:17;6.10;95.50
3690;DHT22;1861;50.240;8.596;2023-03-07T01:51:55;6.10;95.40
3690;DHT22;1861;50.240;8.596;2023-03-07T01:54:27;6.10;95.50
3690;DHT22;1861;50.240;8.596;2023-03-07T01:57:00;6.00;95.60
3690;DHT22;1861;50.240;8.596;2023-03-07T01:59:31;6.10;95.60
3690;DHT22;1861;50.240;8.596;2023-03-07T02:02:04;6.20;95.60
3690;DHT22;1861;50.240;8.596;2023-03-07T02:04:36;6.10;95.50
3690;DHT22;1861;50.240;8.596;2023-03-07T02:07:07;6.10;95.60
3690;DHT22;1861;50.240;8.596;2023-03-07T02:09:39;6.00;95.70
3690;DHT22;1861;50.240;8.596;2023-03-07T02:12:09;6.10;95.80
3690;DHT22;1861;50.240;8.596;2023-03-07T02:14:42;6.10;95.80
3690;DHT22;1861;50.240;8.596;2023-03-07T02:17:11;6.10;95.80
3690;DHT22;1861;50.240;8.596;2023-03-07T02:19:50;6.10;95.90
3690;DHT22;1861;50.240;8.596;2023-03-07T02:22:20;6.20;95.80
3690;DHT22;1861;50.240;8.596;2023-03-07T02:24:53;6.10;95.80
3690;DHT22;1861;50.240;8.596;2023-03-07T02:27:24;6.10;95.90
3690;DHT22;1861;50.240;8.596;2023-03-07T02:29:53;6.00;95.90
3690;DHT22;1861;50.240;8.596;2023-03-07T02:32:21;6.00;96.10
3690;DHT22;1861;50.240;8.596;2023-03-07T02:34:49;6.00;96.20
3690;DHT22;1861;50.240;8.596;2023-03-07T02:37:23;6.00;96.10
3690;DHT22;1861;50.240;8.596;2023-03-07T02:39:52;6.10;96.00
3690;DHT22;1861;50.240;8.596;2023-03-07T02:42:24;6.10;96.10
3690;DHT22;1861;50.240;8.596;2023-03-07T02:45:02;6.00;96.20
3690;DHT22;1861;50.240;8.596;2023-03-07T02:47:33;6.00;96.30
3690;DHT22;1861;50.240;8.596;2023-03-07T02:50:02;6.00;96.40
3690;DHT22;1861;50.240;8.596;2023-03-07T02:52:32;6.00;96.50
3690;DHT22;1861;50.240;8.596;2023-03-07T02:55:00;6.00;96.40
3690;DHT22;1861;50.240;8.596;2023-03-07T02:57:33;6.00;96.40
3690;DHT22;1861;50.240;8.596;2023-03-07T03:00:04;6.00;96.60
3690;DHT22;1861;50.240;8.596;2023-03-07T03:02:34;5.90;96.60
3690;DHT22;1861;50.240;8.596;2023-03-07T03:05:02;6.00;96.80
3690;DHT22;1861;50.240;8.596;2023-03-07T03:07:30;6.00;96.80
3690;DHT22;1861;50.240;8.596;2023-03-07T03:10:00;6.00;96.70
3690;DHT22;1861;50.240;8.596;2023-03-07T03:12:32;6.00;96.70
3690;DHT22;1861;50.240;8.596;2023-03-07T03:15:01;6.00;96.90
3690;DHT22;1861;50.240;8.596;2023-03-07T03:17:31;6.00;97.00
3690;DHT22;1861;50.240;8.596;2023-03-07T03:20:00;6.10;97.10
3690;DHT22;1861;50.240;8.596;2023-03-07T03:22:29;6.00;97.00
3690;DHT22;1861;50.240;8.596;2023-03-07T03:24:58;6.00;97.00
3690;DHT22;1861;50.240;8.596;2023-03-07T03:27:27;6.00;97.10
3690;DHT22;1861;50.240;8.596;2023-03-07T03:29:56;6.00;97.10
3690;DHT22;1861;50.240;8.596;2023-03-07T03:32:24;5.90;97.10
3690;DHT22;1861;50.240;8.596;2023-03-07T03:34:53;6.00;97.20
3690;DHT22;1861;50.240;8.596;2023-03-07T03:37:21;6.00;97.20
3690;DHT22;1861;50.240;8.596;2023-03-07T03:39:51;6.00;97.20
3690;DHT22;1861;50.240;8.596;2023-03-07T03:42:20;6.00;97.30
3690;DHT22;1861;50.240;8.596;2023-03-07T03:44:48;6.00;97.30
3690;DHT22;1861;50.240;8.596;2023-03-07T03:47:17;6.00;97.30
3690;DHT22;1861;50.240;8.596;2023-03-07T03:49:45;6.00;97.30
3690;DHT22;1861;50.240;8.596;2023-03-07T03:52:14;6.00;97.30
3690;DHT22;1861;50.240;8.596;2023-03-07T03:54:42;6.00;97.30
3690;DHT22;1861;50.240;8.596;2023-03-07T03:57:10;6.10;97.50
3690;DHT22;1861;50.240;8.596;2023-03-07T03:59:43;6.00;97.40
3690;DHT22;1861;50.240;8.596;2023-03-07T04:02:13;6.00;97.40
3690;DHT22;1861;50.240;8.596;2023-03-07T04:04:42;6.00;97.40
3690;DHT22;1861;50.240;8.596;2023-03-07T04:07:11;6.00;97.40
3690;DHT22;1861;50.240;8.596;2023-03-07T04:09:39;5.90;97.40
3690;DHT22;1861;50.240;8.596;2023-03-07T04:12:07;6.00;97.50
3690;DHT22;1861;50.240;8.596;2023-03-07T04:14:35;6.00;97.50
3690;DHT22;1861;50.240;8.596;2023-03-07T04:17:03;6.10;97.50
3690;DHT22;1861;50.240;8.596;2023-03-07T04:19:32;6.10;97.50
3690;DHT22;1861;50.240;8.596;2023-03-07T04:22:01;6.20;97.50
3690;DHT22;1861;50.240;8.596;2023-03-07T04:24:30;6.20;97.60
3690;DHT22;1861;50.240;8.596;2023-03-07T04:26:58;6.20;97.50
3690;DHT22;1861;50.240;8.596;2023-03-07T04:29:26;6.20;97.50
3690;DHT22;1861;50.240;8.596;2023-03-07T04:32:04;6.10;97.50
3690;DHT22;1861;50.240;8.596;2023-03-07T04:34:33;6.20;97.60
3690;DHT22;1861;50.240;8.596;2023-03-07T04:37:02;6.10;97.60
3690;DHT22;1861;50.240;8.596;2023-03-07T04:39:30;6.30;97.60
3690;DHT22;1861;50.240;8.596;2023-03-07T04:41:58;6.20;97.60
3690;DHT22;1861;50.240;8.596;2023-03-07T04:44:32;6.30;97.60
3690;DHT22;1861;50.240;8.596;2023-03-07T04:47:00;6.30;97.60
3690;DHT22;1861;50.240;8.596;2023-03-07T04:49:32;6.20;97.60
3690;DHT22;1861;50.240;8.596;2023-03-07T04:52:02;6.20;97.70
3690;DHT22;1861;50.240;8.596;2023-03-07T04:54:31;6.20;97.60
3690;DHT22;1861;50.240;8.596;2023-03-07T04:57:01;6.30;97.70
3690;DHT22;1861;50.240;8.596;2023-03-07T04:59:29;6.30;97.70
3690;DHT22;1861;50.240;8.596;2023-03-07T05:01:57;6.30;97.80
3690;DHT22;1861;50.240;8.596;2023-03-07T05:04:26;6.20;97.70
3690;DHT22;1861;50.240;8.596;2023-03-07T05:06:54;6.30;97.70
3690;DHT22;1861;50.240;8.596;2023-03-07T05:09:24;6.30;97.70
3690;DHT22;1861;50.240;8.596;2023-03-07T05:11:52;6.30;97.70
3690;DHT22;1861;50.240;8.596;2023-03-07T05:14:21;6.20;97.80
3690;DHT22;1861;50.240;8.596;2023-03-07T05:16:50;6.30;98.00
3690;DHT22;1861;50.240;8.596;2023-03-07T05:19:18;6.30;97.80
3690;DHT22;1861;50.240;8.596;2023-03-07T05:21:47;6.30;97.80
3690;DHT22;1861;50.240;8.596;2023-03-07T05:24:16;6.30;98.00
3690;DHT22;1861;50.240;8.596;2023-03-07T05:26:46;6.30;98.00
3690;DHT22;1861;50.240;8.596;2023-03-07T05:29:14;6.30;98.00
3690;DHT22;1861;50.240;8.596;2023-03-07T05:31:42;6.30;98.20
3690;DHT22;1861;50.240;8.596;2023-03-07T05:34:10;6.30;98.00
3690;DHT22;1861;50.240;8.596;2023-03-07T05:36:39;6.30;98.10
3690;DHT22;1861;50.240;8.596;2023-03-07T05:39:08;6.30;98.10
3690;DHT22;1861;50.240;8.596;2023-03-07T05:41:37;6.30;98.00
3690;DHT22;1861;50.240;8.596;2023-03-07T05:44:06;6.40;98.00
3690;DHT22;1861;50.240;8.596;2023-03-07T05:46:34;6.40;98.00
3690;DHT22;1861;50.240;8.596;2023-03-07T05:49:03;6.40;98.10
3690;DHT22;1861;50.240;8.596;2023-03-07T05:51:31;6.40;98.10
3690;DHT22;1861;50.240;8.596;2023-03-07T05:53:59;6.30;98.10
3690;DHT22;1861;50.240;8.596;2023-03-07T05:56:28;6.30;98.00
3690;DHT22;1861;50.240;8.596;2023-03-07T05:58:56;6.30;98.00
3690;DHT22;1861;50.240;8.596;2023-03-07T06:01:26;6.40;98.00
3690;DHT22;1861;50.240;8.596;2023-03-07T06:03:55;6.40;97.90
3690;DHT22;1861;50.240;8.596;2023-03-07T06:06:23;6.30;98.00
3690;DHT22;1861;50.240;8.596;2023-03-07T06:08:51;6.40;98.00
3690;DHT22;1861;50.240;8.596;2023-03-07T06:11:19;6.40;98.00
3690;DHT22;1861;50.240;8.596;2023-03-07T06:13:47;6.40;97.80
3690;DHT22;1861;50.240;8.596;2023-03-07T06:16:16;6.40;97.90
3690;DHT22;1861;50.240;8.596;2023-03-07T06:18:45;6.40;97.90
3690;DHT22;1861;50.240;8.596;2023-03-07T06:21:15;6.40;97.90
3690;DHT22;1861;50.240;8.596;2023-03-07T06:23:45;6.40;97.90
3690;DHT22;1861;50.240;8.596;2023-03-07T06:26:17;6.40;98.00
3690;DHT22;1861;50.240;8.596;2023-03-07T06:28:49;6.40;98.10
3690;DHT22;1861;50.240;8.596;2023-03-07T06:31:18;6.50;98.00
3690;DHT22;1861;50.240;8.596;2023-03-07T06:33:48;6.40;98.20
3690;DHT22;1861;50.240;8.596;2023-03-07T06:36:19;6.40;98.00
3690;DHT22;1861;50.240;8.596;2023-03-07T06:38:53;6.40;98.10
3690;DHT22;1861;50.240;8.596;2023-03-07T06:41:22;6.50;98.00
3690;DHT22;1861;50.240;8.596;2023-03-07T06:43:53;6.50;98.00
3690;DHT22;1861;50.240;8.596;2023-03-07T06:46:26;6.50;97.90
3690;DHT22;1861;50.240;8.596;2023-03-07T06:48:56;6.50;97.90
3690;DHT22;1861;50.240;8.596;2023-03-07T06:51:24;6.40;98.10
3690;DHT22;1861;50.240;8.596;2023-03-07T06:53:55;6.50;98.00
3690;DHT22;1861;50.240;8.596;2023-03-07T06:56:24;6.50;98.00
3690;DHT22;1861;50.240;8.596;2023-03-07T06:58:52;6.50;97.90
3690;DHT22;1861;50.240;8.596;2023-03-07T07:01:21;6.50;97.90
3690;DHT22;1861;50.240;8.596;2023-03-07T07:03:51;6.50;98.00
3690;DHT22;1861;50.240;8.596;2023-03-07T07:06:21;6.60;98.00
3690;DHT22;1861;50.240;8.596;2023-03-07T07:08:53;6.50;97.90
3690;DHT22;1861;50.240;8.596;2023-03-07T07:11:25;6.60;97.90
3690;DHT22;1861;50.240;8.596;2023-03-07T07:13:53;6.60;97.90
3690;DHT22;1861;50.240;8.596;2023-03-07T07:16:22;6.60;98.00
3690;DHT22;1861;50.240;8.596;2023-03-07T07:18:51;6.50;97.90
3690;DHT22;1861;50.240;8.596;2023-03-07T07:21:21;6.60;97.90
3690;DHT22;1861;50.240;8.596;2023-03-07T07:23:49;6.60;97.80
3690;DHT22;1861;50.240;8.596;2023-03-07T07:26:17;6.60;97.90
3690;DHT22;1861;50.240;8.596;2023-03-07T07:28:46;6.70;97.90
3690;DHT22;1861;50.240;8.596;2023-03-07T07:31:14;6.70;97.80
3690;DHT22;1861;50.240;8.596;2023-03-07T07:33:42;6.70;97.70
3690;DHT22;1861;50.240;8.596;2023-03-07T07:36:12;6.90;97.80
3690;DHT22;1861;50.240;8.596;2023-03-07T07:38:42;6.90;97.40
3690;DHT22;1861;50.240;8.596;2023-03-07T07:41:11;7.00;97.50
3690;DHT22;1861;50.240;8.596;2023-03-07T07:43:39;7.00;97.20
3690;DHT22;1861;50.240;8.596;2023-03-07T07:46:15;6.90;97.40
3690;DHT22;1861;50.240;8.596;2023-03-07T07:48:45;6.80;97.60
3690;DHT22;1861;50.240;8.596;2023-03-07T07:51:14;6.80;97.20
3690;DHT22;1861;50.240;8.596;2023-03-07T07:53:44;6.80;97.50
3690;DHT22;1861;50.240;8.596;2023-03-07T07:56:13;6.80;97.30
3690;DHT22;1861;50.240;8.596;2023-03-07T07:58:41;6.80;97.50
3690;DHT22;1861;50.240;8.596;2023-03-07T08:01:14;6.80;97.40
3690;DHT22;1861;50.240;8.596;2023-03-07T08:03:42;6.70;97.30
3690;DHT22;1861;50.240;8.596;2023-03-07T08:06:11;6.80;97.30
3690;DHT22;1861;50.240;8.596;2023-03-07T08:08:39;6.80;97.20
3690;DHT22;1861;50.240;8.596;2023-03-07T08:11:09;6.80;97.20
3690;DHT22;1861;50.240;8.596;2023-03-07T08:13:40;6.80;97.20
3690;DHT22;1861;50.240;8.596;2023-03-07T08:16:09;6.80;97.20
3690;DHT22;1861;50.240;8.596;2023-03-07T08:18:37;6.90;97.40
3690;DHT22;1861;50.240;8.596;2023-03-07T08:21:05;6.90;96.90
3690;DHT22;1861;50.240;8.596;2023-03-07T08:23:34;6.90;97.00
3690;DHT22;1861;50.240;8.596;2023-03-07T08:26:02;6.90;97.10
3690;DHT22;1861;50.240;8.596;2023-03-07T08:28:33;6.90;97.10
3690;DHT22;1861;50.240;8.596;2023-03-07T08:31:05;6.90;96.90
3690;DHT22;1861;50.240;8.596;2023-03-07T08:33:34;6.90;97.00
3690;DHT22;1861;50.240;8.596;2023-03-07T08:36:02;6.90;97.00
3690;DHT22;1861;50.240;8.596;2023-03-07T08:38:30;7.00;97.00
3690;DHT22;1861;50.240;8.596;2023-03-07T08:40:59;7.00;97.00
3690;DHT22;1861;50.240;8.596;2023-03-07T08:43:28;7.10;97.10
3690;DHT22;1861;50.240;8.596;2023-03-07T08:45:58;7.10;97.10
3690;DHT22;1861;50.240;8.596;2023-03-07T08:48:27;7.10;97.20
3690;DHT22;1861;50.240;8.596;2023-03-07T08:50:55;7.20;97.20
3690;DHT22;1861;50.240;8.596;2023-03-07T08:53:23;7.20;97.00
3690;DHT22;1861;50.240;8.596;2023-03-07T08:55:51;7.20;97.10
3690;DHT22;1861;50.240;8.596;2023-03-07T08:58:19;7.20;97.20
3690;DHT22;1861;50.240;8.596;2023-03-07T09:00:47;7.30;97.20
3690;DHT22;1861;50.240;8.596;2023-03-07T09:03:16;7.30;97.20
3690;DHT22;1861;50.240;8.596;2023-03-07T09:05:44;7.20;96.90
3690;DHT22;1861;50.240;8.596;2023-03-07T09:08:12;7.30;97.00
3690;DHT22;1861;50.240;8.596;2023-03-07T09:10:40;7.30;96.80
3690;DHT22;1861;50.240;8.596;2023-03-07T09:13:09;7.40;96.60
3690;DHT22;1861;50.240;8.596;2023-03-07T09:15:38;7.40;96.40
3690;DHT22;1861;50.240;8.596;2023-03-07T09:18:06;7.40;96.50
3690;DHT22;1861;50.240;8.596;2023-03-07T09:20:38;7.50;96.70
3690;DHT22;1861;50.240;8.596;2023-03-07T09:23:07;7.50;96.40
3690;DHT22;1861;50.240;8.596;2023-03-07T09:25:36;7.50;96.40
3690;DHT22;1861;50.240;8.596;2023-03-07T09:28:05;7.50;96.30
3690;DHT22;1861;50.240;8.596;2023-03-07T09:30:33;7.50;96.20
3690;DHT22;1861;50.240;8.596;2023-03-07T09:33:01;7.50;96.60
3690;DHT22;1861;50.240;8.596;2023-03-07T09:35:29;7.50;96.00
3690;DHT22;1861;50.240;8.596;2023-03-07T09:37:59;7.50;96.00
3690;DHT22;1861;50.240;8.596;2023-03-07T09:40:27;7.60;96.00
3690;DHT22;1861;50.240;8.596;2023-03-07T09:43:00;7.70;96.00
3690;DHT22;1861;50.240;8.596;2023-03-07T09:45:53;7.70;96.10
3690;DHT22;1861;50.240;8.596;2023-03-07T09:48:48;7.80;95.70
3690;DHT22;1861;50.240;8.596;2023-03-07T09:51:23;7.90;96.00
3690;DHT22;1861;50.240;8.596;2023-03-07T09:53:56;7.90;95.70
3690;DHT22;1861;50.240;8.596;2023-03-07T09:56:30;7.90;95.50
3690;DHT22;1861;50.240;8.596;2023-03-07T09:59:04;8.00;95.50
3690;DHT22;1861;50.240;8.596;2023-03-07T10:01:51;8.00;95.50
3690;DHT22;1861;50.240;8.596;2023-03-07T10:04:29;8.00;95.40
3690;DHT22;1861;50.240;8.596;2023-03-07T10:07:01;8.00;95.20
3690;DHT22;1861;50.240;8.596;2023-03-07T10:09:32;8.00;94.90
3690;DHT22;1861;50.240;8.596;2023-03-07T10:12:26;8.00;94.90
3690;DHT22;1861;50.240;8.596;2023-03-07T10:15:04;7.90;94.90
3690;DHT22;1861;50.240;8.596;2023-03-07T10:17:50;7.90;94.80
3690;DHT22;1861;50.240;8.596;2023-03-07T10:20:30;7.90;94.90
3690;DHT22;1861;50.240;8.596;2023-03-07T10:23:03;8.00;94.60
3690;DHT22;1861;50.240;8.596;2023-03-07T10:25:35;8.00;94.60
3690;DHT22;1861;50.240;8.596;2023-03-07T10:28:15;8.10;94.40
3690;DHT22;1861;50.240;8.596;2023-03-07T10:30:46;8.00;94.30
3690;DHT22;1861;50.240;8.596;2023-03-07T10:33:17;8.00;94.20
3690;DHT22;1861;50.240;8.596;2023-03-07T10:35:49;8.00;94.20
3690;DHT22;1861;50.240;8.596;2023-03-07T10:38:25;8.00;94.30
3690;DHT22;1861;50.240;8.596;2023-03-07T10:40:59;8.00;94.40
3690;DHT22;1861;50.240;8.596;2023-03-07T10:43:31;8.00;94.30
3690;DHT22;1861;50.240;8.596;2023-03-07T10:46:08;8.00;94.20
3690;DHT22;1861;50.240;8.596;2023-03-07T10:48:52;8.00;94.40
3690;DHT22;1861;50.240;8.596;2023-03-07T10:51:36;8.00;94.10
3690;DHT22;1861;50.240;8.596;2023-03-07T10:54:13;8.00;94.20
3690;DHT22;1861;50.240;8.596;2023-03-07T10:57:02;8.00;93.90
3690;DHT22;1861;50.240;8.596;2023-03-07T10:59:31;8.10;93.80
3690;DHT22;1861;50.240;8.596;2023-03-07T11:02:00;8.10;93.80
3690;DHT22;1861;50.240;8.596;2023-03-07T11:04:42;8.20;94.30
3690;DHT22;1861;50.240;8.596;2023-03-07T11:07:24;8.10;94.00
3690;DHT22;1861;50.240;8.596;2023-03-07T11:09:55;8.20;93.90
3690;DHT22;1861;50.240;8.596;2023-03-07T11:12:26;8.30;93.70
3690;DHT22;1861;50.240;8.596;2023-03-07T11:14:55;8.40;93.80
3690;DHT22;1861;50.240;8.596;2023-03-07T11:17:26;8.40;93.60
3690;DHT22;1861;50.240;8.596;2023-03-07T11:19:57;8.40;93.40
3690;DHT22;1861;50.240;8.596;2023-03-07T11:22:27;8.40;93.80
3690;DHT22;1861;50.240;8.596;2023-03-07T11:24:59;8.40;93.60
3690;DHT22;1861;50.240;8.596;2023-03-07T11:27:35;8.40;94.00
3690;DHT22;1861;50.240;8.596;2023-03-07T11:30:19;8.40;93.60
3690;DHT22;1861;50.240;8.596;2023-03-07T11:32:53;8.40;93.50
3690;DHT22;1861;50.240;8.596;2023-03-07T11:35:40;8.30;93.40
3690;DHT22;1861;50.240;8.596;2023-03-07T11:38:18;8.30;93.30
3690;DHT22;1861;50.240;8.596;2023-03-07T11:40:55;8.30;93.50
3690;DHT22;1861;50.240;8.596;2023-03-07T11:43:45;8.20;93.00
3690;DHT22;1861;50.240;8.596;2023-03-07T11:46:22;8.20;92.90
3690;DHT22;1861;50.240;8.596;2023-03-07T11:49:06;8.30;93.00
3690;DHT22;1861;50.240;8.596;2023-03-07T11:51:46;8.30;93.00
3690;DHT22;1861;50.240;8.596;2023-03-07T11:54:24;8.30;92.70
3690;DHT22;1861;50.240;8.596;2023-03-07T11:57:00;8.30;92.50
3690;DHT22;1861;50.240;8.596;2023-03-07T12:05:49;8.30;92.50
3690;DHT22;1861;50.240;8.596;2023-03-07T12:08:31;8.20;92.30
3690;DHT22;1861;50.240;8.596;2023-03-07T12:11:11;8.20;92.50
3690;DHT22;1861;50.240;8.596;2023-03-07T12:13:52;8.20;92.10
3690;DHT22;1861;50.240;8.596;2023-03-07T12:16:26;8.20;92.30
3690;DHT22;1861;50.240;8.596;2023-03-07T12:19:11;8.20;92.00
3690;DHT22;1861;50.240;8.596;2023-03-07T12:22:01;8.20;92.10
3690;DHT22;1861;50.240;8.596;2023-03-07T12:24:38;8.20;92.10
3690;DHT22;1861;50.240;8.596;2023-03-07T12:27:11;8.20;92.00
3690;DHT22;1861;50.240;8.596;2023-03-07T12:29:46;8.30;91.80
3690;DHT22;1861;50.240;8.596;2023-03-07T12:32:22;8.20;91.60
3690;DHT22;1861;50.240;8.596;2023-03-07T12:34:56;8.20;92.20
3690;DHT22;1861;50.240;8.596;2023-03-07T12:37:29;8.20;91.60
3690;DHT22;1861;50.240;8.596;2023-03-07T12:40:02;8.30;91.70
3690;DHT22;1861;50.240;8.596;2023-03-07T12:42:33;8.30;91.60
3690;DHT22;1861;50.240;8.596;2023-03-07T12:45:08;8.30;91.60
3690;DHT22;1861;50.240;8.596;2023-03-07T12:47:50;8.30;91.70
3690;DHT22;1861;50.240;8.596;2023-03-07T12:50:23;8.30;91.50
3690;DHT22;1861;50.240;8.596;2023-03-07T12:52:57;8.30;91.50
3690;DHT22;1861;50.240;8.596;2023-03-07T12:55:33;8.20;91.60
3690;DHT22;1861;50.240;8.596;2023-03-07T12:58:06;8.30;91.50
3690;DHT22;1861;50.240;8.596;2023-03-07T13:00:39;8.30;91.30
3690;DHT22;1861;50.240;8.596;2023-03-07T13:03:12;8.40;91.70
3690;DHT22;1861;50.240;8.596;2023-03-07T13:05:43;8.40;91.80
3690;DHT22;1861;50.240;8.596;2023-03-07T13:08:18;8.50;91.40
3690;DHT22;1861;50.240;8.596;2023-03-07T13:10:48;8.50;91.70
3690;DHT22;1861;50.240;8.596;2023-03-07T13:13:55;8.50;91.40
3690;DHT22;1861;50.240;8.596;2023-03-07T13:16:41;8.50;91.40
3690;DHT22;1861;50.240;8.596;2023-03-07T13:25:44;8.50;91.70
3690;DHT22;1861;50.240;8.596;2023-03-07T13:28:30;8.50;91.80
3690;DHT22;1861;50.240;8.596;2023-03-07T13:31:15;8.50;91.60
3690;DHT22;1861;50.240;8.596;2023-03-07T13:33:52;8.50;91.40
3690;DHT22;1861;50.240;8.596;2023-03-07T13:36:31;8.50;91.60
3690;DHT22;1861;50.240;8.596;2023-03-07T13:39:00;8.50;91.30
3690;DHT22;1861;50.240;8.596;2023-03-07T13:41:48;8.50;91.30
3690;DHT22;1861;50.240;8.596;2023-03-07T13:44:28;8.40;91.30
3690;DHT22;1861;50.240;8.596;2023-03-07T13:47:03;8.50;91.20
3690;DHT22;1861;50.240;8.596;2023-03-07T13:49:40;8.40;91.30
3690;DHT22;1861;50.240;8.596;2023-03-07T13:52:41;8.40;91.50
3690;DHT22;1861;50.240;8.596;2023-03-07T13:55:37;8.40;91.80
3690;DHT22;1861;50.240;8.596;2023-03-07T13:58:20;8.40;91.30
3690;DHT22;1861;50.240;8.596;2023-03-07T14:00:54;8.40;91.20
3690;DHT22;1861;50.240;8.596;2023-03-07T14:03:28;8.40;91.50
3690;DHT22;1861;50.240;8.596;2023-03-07T14:06:00;8.40;91.40
3690;DHT22;1861;50.240;8.596;2023-03-07T14:08:33;8.40;91.80
3690;DHT22;1861;50.240;8.596;2023-03-07T14:11:02;8.40;91.70
3690;DHT22;1861;50.240;8.596;2023-03-07T14:19:53;8.40;91.50
3690;DHT22;1861;50.240;8.596;2023-03-07T14:22:34;8.50;91.70
3690;DHT22;1861;50.240;8.596;2023-03-07T14:25:15;8.50;91.70
3690;DHT22;1861;50.240;8.596;2023-03-07T14:27:56;8.40;91.90
3690;DHT22;1861;50.240;8.596;2023-03-07T14:30:26;8.50;91.70
3690;DHT22;1861;50.240;8.596;2023-03-07T14:32:58;8.50;91.50
3690;DHT22;1861;50.240;8.596;2023-03-07T14:35:39;8.50;91.70
3690;DHT22;1861;50.240;8.596;2023-03-07T14:38:13;8.50;91.70
3690;DHT22;1861;50.240;8.596;2023-03-07T14:41:07;8.50;91.60
3690;DHT22;1861;50.240;8.596;2023-03-07T14:43:47;8.50;91.50
3690;DHT22;1861;50.240;8.596;2023-03-07T14:46:25;8.40;91.50
3690;DHT22;1861;50.240;8.596;2023-03-07T14:49:07;8.50;91.80
3690;DHT22;1861;50.240;8.596;2023-03-07T14:51:39;8.40;91.50
3690;DHT22;1861;50.240;8.596;2023-03-07T14:54:14;8.40;91.70
3690;DHT22;1861;50.240;8.596;2023-03-07T14:56:42;8.40;91.60
3690;DHT22;1861;50.240;8.596;2023-03-07T14:59:12;8.40;91.70
3690;DHT22;1861;50.240;8.596;2023-03-07T15:01:54;8.40;91.70
3690;DHT22;1861;50.240;8.596;2023-03-07T15:04:25;8.40;91.90
3690;DHT22;1861;50.240;8.596;2023-03-07T15:06:56;8.30;92.00
3690;DHT22;1861;50.240;8.596;2023-03-07T15:09:24;8.30;92.00
3690;DHT22;1861;50.240;8.596;2023-03-07T15:11:57;8.30;92.10
3690;DHT22;1861;50.240;8.596;2023-03-07T15:14:33;8.30;92.10
3690;DHT22;1861;50.240;8.596;2023-03-07T15:17:05;8.30;92.20
3690;DHT22;1861;50.240;8.596;2023-03-07T15:19:41;8.30;92.30
3690;DHT22;1861;50.240;8.596;2023-03-07T15:22:16;8.40;92.30
3690;DHT22;1861;50.240;8.596;2023-03-07T15:24:47;8.30;92.30
3690;DHT22;1861;50.240;8.596;2023-03-07T15:27:20;8.30;92.40
3690;DHT22;1861;50.240;8.596;2023-03-07T15:29:50;8.40;92.40
3690;DHT22;1861;50.240;8.596;2023-03-07T15:32:30;8.30;92.40
3690;DHT22;1861;50.240;8.596;2023-03-07T15:35:02;8.30;92.50
3690;DHT22;1861;50.240;8.596;2023-03-07T15:37:31;8.30;92.60
3690;DHT22;1861;50.240;8.596;2023-03-07T15:40:00;8.30;92.70
3690;DHT22;1861;50.240;8.596;2023-03-07T15:42:29;8.30;92.70
3690;DHT22;1861;50.240;8.596;2023-03-07T15:44:58;8.40;92.60
3690;DHT22;1861;50.240;8.596;2023-03-07T15:47:29;8.30;92.50
3690;DHT22;1861;50.240;8.596;2023-03-07T15:50:01;8.30;92.30
3690;DHT22;1861;50.240;8.596;2023-03-07T15:52:32;8.30;92.50
3690;DHT22;1861;50.240;8.596;2023-03-07T15:55:02;8.30;92.60
3690;DHT22;1861;50.240;8.596;2023-03-07T15:57:33;8.30;92.60
3690;DHT22;1861;50.240;8.596;2023-03-07T16:00:05;8.30;92.70
3690;DHT22;1861;50.240;8.596;2023-03-07T16:02:45;8.30;92.80
3690;DHT22;1861;50.240;8.596;2023-03-07T16:05:45;8.20;92.70
3690;DHT22;1861;50.240;8.596;2023-03-07T16:08:14;8.30;92.70
3690;DHT22;1861;50.240;8.596;2023-03-07T16:10:48;8.20;92.70
3690;DHT22;1861;50.240;8.596;2023-03-07T16:13:20;8.20;92.50
3690;DHT22;1861;50.240;8.596;2023-03-07T16:15:59;8.30;92.60
3690;DHT22;1861;50.240;8.596;2023-03-07T16:18:28;8.20;92.50
3690;DHT22;1861;50.240;8.596;2023-03-07T16:20:58;8.20;92.50
3690;DHT22;1861;50.240;8.596;2023-03-07T16:23:26;8.10;92.50
3690;DHT22;1861;50.240;8.596;2023-03-07T16:25:58;8.20;92.50
3690;DHT22;1861;50.240;8.596;2023-03-07T16:28:28;8.20;92.50
3690;DHT22;1861;50.240;8.596;2023-03-07T16:30:57;8.20;92.50
3690;DHT22;1861;50.240;8.596;2023-03-07T16:33:25;8.20;92.50
3690;DHT22;1861;50.240;8.596;2023-03-07T16:35:53;8.20;92.50
3690;DHT22;1861;50.240;8.596;2023-03-07T16:38:23;8.10;92.20
3690;DHT22;1861;50.240;8.596;2023-03-07T16:40:51;8.10;92.00
3690;DHT22;1861;50.240;8.596;2023-03-07T16:43:29;8.20;92.20
3690;DHT22;1861;50.240;8.596;2023-03-07T16:45:58;8.20;92.20
3690;DHT22;1861;50.240;8.596;2023-03-07T16:48:27;8.20;92.30
3690;DHT22;1861;50.240;8.596;2023-03-07T16:50:55;8.10;92.20
3690;DHT22;1861;50.240;8.596;2023-03-07T16:53:25;8.10;92.20
3690;DHT22;1861;50.240;8.596;2023-03-07T16:55:55;8.20;92.10
3690;DHT22;1861;50.240;8.596;2023-03-07T16:58:27;8.20;92.20
3690;DHT22;1861;50.240;8.596;2023-03-07T17:00:56;8.20;92.30
3690;DHT22;1861;50.240;8.596;2023-03-07T17:03:25;8.10;92.30
3690;DHT22;1861;50.240;8.596;2023-03-07T17:05:55;8.10;92.20
3690;DHT22;1861;50.240;8.596;2023-03-07T17:08:25;8.20;92.30